EmailTwitter


Observations de surface / Canada / CYYZ (71624)

Régions: Québec | Canada | États-Unis | Europe | France | UK | Elsewhere
Station
Affichage
Infos & localisation pour CYYZ (71624) | Aide pour décoder les METARs

Observations prises le 2017-06-26 à 04H00 UTC à TORONTO A, ON (CYYZ)

Etat du ciel: partiellement nuageux.

Température: 16.0 Celsius

Point de rosée: 11.0 Celsius

Humidité relative: 72%

Vents: Ouest-sud-ouest à 13 km/h ou 7 noeuds.

Pression au niveau moyen de la mer: 101.51 kilopascals.

Calage altimétrique: 101.49 kilopascals ou 29.97 pouces de mercure.

Visibilité horizontale: 15.00 milles terrestres ou 24.00 kilomètres.

Hauteur du plafond: 2103 mètres ( 6900 pieds ).

Observation METAR:

CYYZ 260400Z 25007KT 15SM FEW045 BKN069 16/11 A2997 RMK CU2AC4 SH DIST NE

SLP151 DENSITY ALT 800FT=